sensor_id;sensor_type;location;lat;lon;timestamp;temperature;humidity
19813;DHT22;10066;48.108;11.448;2024-02-21T00:00:49;4.30;99.90
19813;DHT22;10066;48.108;11.448;2024-02-21T00:03:16;4.30;99.90
19813;DHT22;10066;48.108;11.448;2024-02-21T00:05:43;4.30;99.90
19813;DHT22;10066;48.108;11.448;2024-02-21T00:08:10;4.40;99.90
19813;DHT22;10066;48.108;11.448;2024-02-21T00:10:38;4.40;99.90
19813;DHT22;10066;48.108;11.448;2024-02-21T00:13:05;4.50;99.90
19813;DHT22;10066;48.108;11.448;2024-02-21T00:15:32;4.50;99.90
19813;DHT22;10066;48.108;11.448;2024-02-21T00:17:59;4.50;99.90
19813;DHT22;10066;48.108;11.448;2024-02-21T00:20:26;4.50;99.90
19813;DHT22;10066;48.108;11.448;2024-02-21T00:22:56;4.60;99.90
19813;DHT22;10066;48.108;11.448;2024-02-21T00:25:23;4.60;99.90
19813;DHT22;10066;48.108;11.448;2024-02-21T00:27:51;4.60;99.90
19813;DHT22;10066;48.108;11.448;2024-02-21T00:30:19;4.60;99.90
19813;DHT22;10066;48.108;11.448;2024-02-21T00:32:46;4.60;99.90
19813;DHT22;10066;48.108;11.448;2024-02-21T00:35:14;4.60;99.90
19813;DHT22;10066;48.108;11.448;2024-02-21T00:37:40;4.70;99.90
19813;DHT22;10066;48.108;11.448;2024-02-21T00:40:08;4.60;99.90
19813;DHT22;10066;48.108;11.448;2024-02-21T00:42:36;4.70;99.90
19813;DHT22;10066;48.108;11.448;2024-02-21T00:45:06;4.70;99.90
19813;DHT22;10066;48.108;11.448;2024-02-21T00:47:33;4.60;99.90
19813;DHT22;10066;48.108;11.448;2024-02-21T00:50:00;4.60;99.90
19813;DHT22;10066;48.108;11.448;2024-02-21T00:52:27;4.60;99.90
19813;DHT22;10066;48.108;11.448;2024-02-21T00:54:55;4.60;99.90
19813;DHT22;10066;48.108;11.448;2024-02-21T00:57:21;4.60;99.90
19813;DHT22;10066;48.108;11.448;2024-02-21T00:59:49;4.60;99.90
19813;DHT22;10066;48.108;11.448;2024-02-21T01:02:18;4.60;99.90
19813;DHT22;10066;48.108;11.448;2024-02-21T01:04:45;4.60;99.90
19813;DHT22;10066;48.108;11.448;2024-02-21T01:07:12;4.70;99.90
19813;DHT22;10066;48.108;11.448;2024-02-21T01:09:38;4.70;99.90
19813;DHT22;10066;48.108;11.448;2024-02-21T01:12:06;4.70;99.90
19813;DHT22;10066;48.108;11.448;2024-02-21T01:14:33;4.80;99.90
19813;DHT22;10066;48.108;11.448;2024-02-21T01:17:00;4.80;99.90
19813;DHT22;10066;48.108;11.448;2024-02-21T01:19:29;4.90;99.90
19813;DHT22;10066;48.108;11.448;2024-02-21T01:21:56;4.90;99.90
19813;DHT22;10066;48.108;11.448;2024-02-21T01:24:22;4.90;99.90
19813;DHT22;10066;48.108;11.448;2024-02-21T01:26:50;4.90;99.90
19813;DHT22;10066;48.108;11.448;2024-02-21T01:29:17;5.00;99.90
19813;DHT22;10066;48.108;11.448;2024-02-21T01:31:44;5.00;99.90
19813;DHT22;10066;48.108;11.448;2024-02-21T01:34:13;4.90;99.90
19813;DHT22;10066;48.108;11.448;2024-02-21T01:36:42;4.90;99.90
19813;DHT22;10066;48.108;11.448;2024-02-21T01:39:09;5.00;99.90
19813;DHT22;10066;48.108;11.448;2024-02-21T01:41:36;4.90;99.90
19813;DHT22;10066;48.108;11.448;2024-02-21T01:44:03;4.90;99.90
19813;DHT22;10066;48.108;11.448;2024-02-21T01:46:30;5.00;99.90
19813;DHT22;10066;48.108;11.448;2024-02-21T01:48:58;5.00;99.90
19813;DHT22;10066;48.108;11.448;2024-02-21T01:51:25;5.00;99.90
19813;DHT22;10066;48.108;11.448;2024-02-21T01:53:54;5.00;99.90
19813;DHT22;10066;48.108;11.448;2024-02-21T01:56:22;5.00;99.90
19813;DHT22;10066;48.108;11.448;2024-02-21T01:58:50;5.00;99.90
19813;DHT22;10066;48.108;11.448;2024-02-21T02:01:17;5.00;99.90
19813;DHT22;10066;48.108;11.448;2024-02-21T02:03:45;5.10;99.90
19813;DHT22;10066;48.108;11.448;2024-02-21T02:06:12;5.10;99.90
19813;DHT22;10066;48.108;11.448;2024-02-21T02:08:39;5.10;99.90
19813;DHT22;10066;48.108;11.448;2024-02-21T02:11:08;5.10;99.90
19813;DHT22;10066;48.108;11.448;2024-02-21T02:13:35;5.10;99.90
19813;DHT22;10066;48.108;11.448;2024-02-21T02:16:02;5.20;99.90
19813;DHT22;10066;48.108;11.448;2024-02-21T02:18:29;5.20;99.90
19813;DHT22;10066;48.108;11.448;2024-02-21T02:20:56;5.20;99.90
19813;DHT22;10066;48.108;11.448;2024-02-21T02:23:25;5.20;99.90
19813;DHT22;10066;48.108;11.448;2024-02-21T02:25:53;5.20;99.90
19813;DHT22;10066;48.108;11.448;2024-02-21T02:28:20;5.30;99.90
19813;DHT22;10066;48.108;11.448;2024-02-21T02:30:48;5.20;99.90
19813;DHT22;10066;48.108;11.448;2024-02-21T02:33:16;5.20;99.90
19813;DHT22;10066;48.108;11.448;2024-02-21T02:35:43;5.20;99.90
19813;DHT22;10066;48.108;11.448;2024-02-21T02:38:11;5.20;99.90
19813;DHT22;10066;48.108;11.448;2024-02-21T02:40:40;5.20;99.90
19813;DHT22;10066;48.108;11.448;2024-02-21T02:43:07;5.20;99.90
19813;DHT22;10066;48.108;11.448;2024-02-21T02:45:34;5.20;99.90
19813;DHT22;10066;48.108;11.448;2024-02-21T02:48:02;5.20;99.90
19813;DHT22;10066;48.108;11.448;2024-02-21T02:50:29;5.20;99.90
19813;DHT22;10066;48.108;11.448;2024-02-21T02:52:56;5.20;99.90
19813;DHT22;10066;48.108;11.448;2024-02-21T02:55:23;5.20;99.90
19813;DHT22;10066;48.108;11.448;2024-02-21T02:57:53;5.20;99.90
19813;DHT22;10066;48.108;11.448;2024-02-21T03:00:20;5.20;99.90
19813;DHT22;10066;48.108;11.448;2024-02-21T03:02:48;5.20;99.90
19813;DHT22;10066;48.108;11.448;2024-02-21T03:05:17;5.20;99.90
19813;DHT22;10066;48.108;11.448;2024-02-21T03:07:45;5.30;99.90
19813;DHT22;10066;48.108;11.448;2024-02-21T03:10:12;5.20;99.90
19813;DHT22;10066;48.108;11.448;2024-02-21T03:12:40;5.30;99.90
19813;DHT22;10066;48.108;11.448;2024-02-21T03:15:09;5.30;99.90
19813;DHT22;10066;48.108;11.448;2024-02-21T03:17:36;5.30;99.90
19813;DHT22;10066;48.108;11.448;2024-02-21T03:20:05;5.30;99.90
19813;DHT22;10066;48.108;11.448;2024-02-21T03:22:34;5.30;99.90
19813;DHT22;10066;48.108;11.448;2024-02-21T03:25:01;5.30;99.90
19813;DHT22;10066;48.108;11.448;2024-02-21T03:27:28;5.30;99.90
19813;DHT22;10066;48.108;11.448;2024-02-21T03:29:55;5.30;99.90
19813;DHT22;10066;48.108;11.448;2024-02-21T03:32:24;5.30;99.90
19813;DHT22;10066;48.108;11.448;2024-02-21T03:34:51;5.30;99.90
19813;DHT22;10066;48.108;11.448;2024-02-21T03:37:18;5.30;99.90
19813;DHT22;10066;48.108;11.448;2024-02-21T03:39:45;5.40;99.90
19813;DHT22;10066;48.108;11.448;2024-02-21T03:42:12;5.40;99.90
19813;DHT22;10066;48.108;11.448;2024-02-21T03:44:39;5.40;99.90
19813;DHT22;10066;48.108;11.448;2024-02-21T03:47:06;5.40;99.90
19813;DHT22;10066;48.108;11.448;2024-02-21T03:49:37;5.40;99.90
19813;DHT22;10066;48.108;11.448;2024-02-21T03:52:05;5.40;99.90
19813;DHT22;10066;48.108;11.448;2024-02-21T03:54:33;5.40;99.90
19813;DHT22;10066;48.108;11.448;2024-02-21T03:57:00;5.40;99.90
19813;DHT22;10066;48.108;11.448;2024-02-21T03:59:28;5.40;99.90
19813;DHT22;10066;48.108;11.448;2024-02-21T04:01:55;5.40;99.90
19813;DHT22;10066;48.108;11.448;2024-02-21T04:04:22;5.40;99.90
19813;DHT22;10066;48.108;11.448;2024-02-21T04:06:51;5.40;99.90
19813;DHT22;10066;48.108;11.448;2024-02-21T04:11:46;5.40;99.90
19813;DHT22;10066;48.108;11.448;2024-02-21T04:14:13;5.40;99.90
19813;DHT22;10066;48.108;11.448;2024-02-21T04:16:40;5.40;99.90
19813;DHT22;10066;48.108;11.448;2024-02-21T04:19:07;5.40;99.90
19813;DHT22;10066;48.108;11.448;2024-02-21T04:21:35;5.40;99.90
19813;DHT22;10066;48.108;11.448;2024-02-21T04:24:04;5.40;99.90
19813;DHT22;10066;48.108;11.448;2024-02-21T04:26:31;5.40;99.90
19813;DHT22;10066;48.108;11.448;2024-02-21T04:28:58;5.30;99.90
19813;DHT22;10066;48.108;11.448;2024-02-21T04:31:25;5.30;99.90
19813;DHT22;10066;48.108;11.448;2024-02-21T04:33:52;5.30;99.90
19813;DHT22;10066;48.108;11.448;2024-02-21T04:36:19;5.20;99.90
19813;DHT22;10066;48.108;11.448;2024-02-21T04:38:46;5.20;99.90
19813;DHT22;10066;48.108;11.448;2024-02-21T04:41:15;5.10;99.90
19813;DHT22;10066;48.108;11.448;2024-02-21T04:43:42;5.10;99.90
19813;DHT22;10066;48.108;11.448;2024-02-21T04:46:09;5.10;99.90
19813;DHT22;10066;48.108;11.448;2024-02-21T04:48:37;5.10;99.90
19813;DHT22;10066;48.108;11.448;2024-02-21T04:51:04;5.00;99.90
19813;DHT22;10066;48.108;11.448;2024-02-21T04:53:31;5.00;99.90
19813;DHT22;10066;48.108;11.448;2024-02-21T04:55:58;4.90;99.90
19813;DHT22;10066;48.108;11.448;2024-02-21T04:58:26;4.90;99.90
19813;DHT22;10066;48.108;11.448;2024-02-21T05:00:53;4.80;99.90
19813;DHT22;10066;48.108;11.448;2024-02-21T05:03:21;4.70;99.90
19813;DHT22;10066;48.108;11.448;2024-02-21T05:05:48;4.70;99.90
19813;DHT22;10066;48.108;11.448;2024-02-21T05:08:16;4.60;99.90
19813;DHT22;10066;48.108;11.448;2024-02-21T05:10:43;4.50;99.90
19813;DHT22;10066;48.108;11.448;2024-02-21T05:13:10;4.40;99.90
19813;DHT22;10066;48.108;11.448;2024-02-21T05:15:38;4.30;99.90
19813;DHT22;10066;48.108;11.448;2024-02-21T05:18:06;4.30;99.90
19813;DHT22;10066;48.108;11.448;2024-02-21T05:20:33;4.20;99.90
19813;DHT22;10066;48.108;11.448;2024-02-21T05:23:00;4.20;99.90
19813;DHT22;10066;48.108;11.448;2024-02-21T05:25:28;4.20;99.90
19813;DHT22;10066;48.108;11.448;2024-02-21T05:27:55;4.20;99.90
19813;DHT22;10066;48.108;11.448;2024-02-21T05:30:27;4.20;99.90
19813;DHT22;10066;48.108;11.448;2024-02-21T05:32:55;4.10;99.90
19813;DHT22;10066;48.108;11.448;2024-02-21T05:35:25;4.10;99.90
19813;DHT22;10066;48.108;11.448;2024-02-21T05:37:53;4.10;99.90
19813;DHT22;10066;48.108;11.448;2024-02-21T05:40:20;4.10;99.90
19813;DHT22;10066;48.108;11.448;2024-02-21T05:42:47;4.20;99.90
19813;DHT22;10066;48.108;11.448;2024-02-21T05:45:15;4.20;99.90
19813;DHT22;10066;48.108;11.448;2024-02-21T05:47:42;4.20;99.90
19813;DHT22;10066;48.108;11.448;2024-02-21T05:50:11;4.30;99.90
19813;DHT22;10066;48.108;11.448;2024-02-21T05:52:38;4.30;99.90
19813;DHT22;10066;48.108;11.448;2024-02-21T05:55:07;4.30;99.90
19813;DHT22;10066;48.108;11.448;2024-02-21T05:57:34;4.40;99.90
19813;DHT22;10066;48.108;11.448;2024-02-21T06:00:04;4.40;99.90
19813;DHT22;10066;48.108;11.448;2024-02-21T06:02:32;4.40;99.90
19813;DHT22;10066;48.108;11.448;2024-02-21T06:04:59;4.40;99.90
19813;DHT22;10066;48.108;11.448;2024-02-21T06:07:27;4.40;99.90
19813;DHT22;10066;48.108;11.448;2024-02-21T06:09:54;4.30;99.90
19813;DHT22;10066;48.108;11.448;2024-02-21T06:12:21;4.30;99.90
19813;DHT22;10066;48.108;11.448;2024-02-21T06:14:48;4.30;99.90
19813;DHT22;10066;48.108;11.448;2024-02-21T06:17:15;4.30;99.90
19813;DHT22;10066;48.108;11.448;2024-02-21T06:19:43;4.30;99.90
19813;DHT22;10066;48.108;11.448;2024-02-21T06:22:10;4.30;99.90
19813;DHT22;10066;48.108;11.448;2024-02-21T06:24:39;4.20;99.90
19813;DHT22;10066;48.108;11.448;2024-02-21T06:27:06;4.30;99.90
19813;DHT22;10066;48.108;11.448;2024-02-21T06:29:33;4.20;99.90
19813;DHT22;10066;48.108;11.448;2024-02-21T06:32:01;4.30;99.90
19813;DHT22;10066;48.108;11.448;2024-02-21T06:34:28;4.30;99.90
19813;DHT22;10066;48.108;11.448;2024-02-21T06:36:55;4.40;99.90
19813;DHT22;10066;48.108;11.448;2024-02-21T06:39:22;4.50;99.90
19813;DHT22;10066;48.108;11.448;2024-02-21T06:41:51;4.50;99.90
19813;DHT22;10066;48.108;11.448;2024-02-21T06:44:19;4.60;99.90
19813;DHT22;10066;48.108;11.448;2024-02-21T06:46:46;4.70;99.90
19813;DHT22;10066;48.108;11.448;2024-02-21T06:49:13;4.80;99.90
19813;DHT22;10066;48.108;11.448;2024-02-21T06:51:43;4.90;99.90
19813;DHT22;10066;48.108;11.448;2024-02-21T06:54:10;4.90;99.90
19813;DHT22;10066;48.108;11.448;2024-02-21T06:56:37;5.00;99.90
19813;DHT22;10066;48.108;11.448;2024-02-21T06:59:06;5.10;99.90
19813;DHT22;10066;48.108;11.448;2024-02-21T07:01:33;5.20;99.90
19813;DHT22;10066;48.108;11.448;2024-02-21T07:04:00;5.30;99.90
19813;DHT22;10066;48.108;11.448;2024-02-21T07:06:27;5.40;99.90
19813;DHT22;10066;48.108;11.448;2024-02-21T07:08:54;5.40;99.90
19813;DHT22;10066;48.108;11.448;2024-02-21T07:11:21;5.40;99.90
19813;DHT22;10066;48.108;11.448;2024-02-21T07:13:48;5.50;99.90
19813;DHT22;10066;48.108;11.448;2024-02-21T07:16:17;5.60;99.90
19813;DHT22;10066;48.108;11.448;2024-02-21T07:18:44;5.60;99.90
19813;DHT22;10066;48.108;11.448;2024-02-21T07:21:11;5.70;99.90
19813;DHT22;10066;48.108;11.448;2024-02-21T07:23:40;5.80;99.90
19813;DHT22;10066;48.108;11.448;2024-02-21T07:26:08;5.90;99.90
19813;DHT22;10066;48.108;11.448;2024-02-21T07:28:35;6.00;99.90
19813;DHT22;10066;48.108;11.448;2024-02-21T07:31:03;6.10;99.90
19813;DHT22;10066;48.108;11.448;2024-02-21T07:33:31;6.20;99.90
19813;DHT22;10066;48.108;11.448;2024-02-21T07:35:58;6.30;99.90
19813;DHT22;10066;48.108;11.448;2024-02-21T07:38:25;6.40;99.90
19813;DHT22;10066;48.108;11.448;2024-02-21T07:40:52;6.40;99.90
19813;DHT22;10066;48.108;11.448;2024-02-21T07:43:19;6.40;99.90
19813;DHT22;10066;48.108;11.448;2024-02-21T07:45:47;6.40;99.90
19813;DHT22;10066;48.108;11.448;2024-02-21T07:48:14;6.30;99.90
19813;DHT22;10066;48.108;11.448;2024-02-21T07:50:43;6.20;99.90
19813;DHT22;10066;48.108;11.448;2024-02-21T07:53:10;6.10;99.90
19813;DHT22;10066;48.108;11.448;2024-02-21T07:55:37;6.00;99.90
19813;DHT22;10066;48.108;11.448;2024-02-21T07:58:04;5.90;99.90
19813;DHT22;10066;48.108;11.448;2024-02-21T08:00:32;5.80;99.90
19813;DHT22;10066;48.108;11.448;2024-02-21T08:02:59;5.70;99.90
19813;DHT22;10066;48.108;11.448;2024-02-21T08:05:26;5.60;99.90
19813;DHT22;10066;48.108;11.448;2024-02-21T08:07:57;5.60;99.90
19813;DHT22;10066;48.108;11.448;2024-02-21T08:10:24;5.50;99.90
19813;DHT22;10066;48.108;11.448;2024-02-21T08:12:54;5.50;99.90
19813;DHT22;10066;48.108;11.448;2024-02-21T08:15:21;5.50;99.90
19813;DHT22;10066;48.108;11.448;2024-02-21T08:17:51;5.50;99.90
19813;DHT22;10066;48.108;11.448;2024-02-21T08:20:18;5.50;99.90
19813;DHT22;10066;48.108;11.448;2024-02-21T08:22:45;5.50;99.90
19813;DHT22;10066;48.108;11.448;2024-02-21T08:25:14;5.60;99.90
19813;DHT22;10066;48.108;11.448;2024-02-21T08:27:41;5.60;99.90
19813;DHT22;10066;48.108;11.448;2024-02-21T08:30:08;5.70;99.90
19813;DHT22;10066;48.108;11.448;2024-02-21T08:32:35;5.80;99.90
19813;DHT22;10066;48.108;11.448;2024-02-21T08:35:03;5.80;99.90
19813;DHT22;10066;48.108;11.448;2024-02-21T08:37:31;5.90;99.90
19813;DHT22;10066;48.108;11.448;2024-02-21T08:39:57;6.10;99.90
19813;DHT22;10066;48.108;11.448;2024-02-21T08:42:26;6.20;99.90
19813;DHT22;10066;48.108;11.448;2024-02-21T08:44:53;6.30;99.90
19813;DHT22;10066;48.108;11.448;2024-02-21T08:47:20;6.40;99.90
19813;DHT22;10066;48.108;11.448;2024-02-21T08:49:47;6.60;99.90
19813;DHT22;10066;48.108;11.448;2024-02-21T08:52:15;6.70;99.90
19813;DHT22;10066;48.108;11.448;2024-02-21T08:54:42;6.90;99.90
19813;DHT22;10066;48.108;11.448;2024-02-21T08:57:09;7.00;99.90
19813;DHT22;10066;48.108;11.448;2024-02-21T08:59:38;7.10;99.90
19813;DHT22;10066;48.108;11.448;2024-02-21T09:02:05;7.20;99.90
19813;DHT22;10066;48.108;11.448;2024-02-21T09:04:32;7.30;99.90
19813;DHT22;10066;48.108;11.448;2024-02-21T09:07:00;7.40;99.90
19813;DHT22;10066;48.108;11.448;2024-02-21T09:11:54;7.60;99.90
19813;DHT22;10066;48.108;11.448;2024-02-21T09:14:21;7.70;99.90
19813;DHT22;10066;48.108;11.448;2024-02-21T09:16:50;7.80;99.90
19813;DHT22;10066;48.108;11.448;2024-02-21T09:19:17;8.00;99.90
19813;DHT22;10066;48.108;11.448;2024-02-21T09:21:44;8.10;99.90
19813;DHT22;10066;48.108;11.448;2024-02-21T09:24:11;8.20;99.90
19813;DHT22;10066;48.108;11.448;2024-02-21T09:26:38;8.40;99.90
19813;DHT22;10066;48.108;11.448;2024-02-21T09:29:05;8.50;99.90
19813;DHT22;10066;48.108;11.448;2024-02-21T09:31:33;8.60;99.90
19813;DHT22;10066;48.108;11.448;2024-02-21T09:34:02;8.70;99.90
19813;DHT22;10066;48.108;11.448;2024-02-21T09:36:29;8.80;99.90
19813;DHT22;10066;48.108;11.448;2024-02-21T09:38:56;8.90;99.90
19813;DHT22;10066;48.108;11.448;2024-02-21T09:41:26;9.00;99.90
19813;DHT22;10066;48.108;11.448;2024-02-21T09:43:53;9.10;99.90
19813;DHT22;10066;48.108;11.448;2024-02-21T09:46:25;9.20;99.90
19813;DHT22;10066;48.108;11.448;2024-02-21T09:49:06;9.30;99.90
19813;DHT22;10066;48.108;11.448;2024-02-21T09:51:40;9.40;99.90
19813;DHT22;10066;48.108;11.448;2024-02-21T09:54:08;9.50;99.90
19813;DHT22;10066;48.108;11.448;2024-02-21T09:56:35;9.60;99.90
19813;DHT22;10066;48.108;11.448;2024-02-21T09:59:03;9.60;99.90
19813;DHT22;10066;48.108;11.448;2024-02-21T10:01:31;9.70;99.90
19813;DHT22;10066;48.108;11.448;2024-02-21T10:03:58;9.80;99.90
19813;DHT22;10066;48.108;11.448;2024-02-21T10:06:26;9.80;99.90
19813;DHT22;10066;48.108;11.448;2024-02-21T10:08:53;9.90;99.90
19813;DHT22;10066;48.108;11.448;2024-02-21T10:11:23;10.00;99.90
19813;DHT22;10066;48.108;11.448;2024-02-21T10:13:50;10.10;99.90
19813;DHT22;10066;48.108;11.448;2024-02-21T10:16:17;10.10;99.90
19813;DHT22;10066;48.108;11.448;2024-02-21T10:18:44;10.10;99.90
19813;DHT22;10066;48.108;11.448;2024-02-21T10:21:11;10.20;99.90
19813;DHT22;10066;48.108;11.448;2024-02-21T10:23:43;10.20;99.90
19813;DHT22;10066;48.108;11.448;2024-02-21T10:26:10;10.20;99.90
19813;DHT22;10066;48.108;11.448;2024-02-21T10:28:37;10.30;99.90
19813;DHT22;10066;48.108;11.448;2024-02-21T10:31:08;10.30;99.90
19813;DHT22;10066;48.108;11.448;2024-02-21T10:33:35;10.30;99.90
19813;DHT22;10066;48.108;11.448;2024-02-21T10:36:09;10.40;99.90
19813;DHT22;10066;48.108;11.448;2024-02-21T10:38:37;10.40;99.90
19813;DHT22;10066;48.108;11.448;2024-02-21T10:41:06;10.50;99.90
19813;DHT22;10066;48.108;11.448;2024-02-21T10:43:38;10.60;99.90
19813;DHT22;10066;48.108;11.448;2024-02-21T10:46:07;10.70;99.90
19813;DHT22;10066;48.108;11.448;2024-02-21T10:48:42;10.70;99.90
19813;DHT22;10066;48.108;11.448;2024-02-21T10:51:15;10.80;99.90
19813;DHT22;10066;48.108;11.448;2024-02-21T10:53:47;10.80;99.90
19813;DHT22;10066;48.108;11.448;2024-02-21T10:56:22;10.90;99.90
19813;DHT22;10066;48.108;11.448;2024-02-21T10:58:53;11.00;99.90
19813;DHT22;10066;48.108;11.448;2024-02-21T11:01:21;11.10;99.90
19813;DHT22;10066;48.108;11.448;2024-02-21T11:03:51;11.20;99.90
19813;DHT22;10066;48.108;11.448;2024-02-21T11:06:20;11.30;99.90
19813;DHT22;10066;48.108;11.448;2024-02-21T11:08:47;11.40;99.90
19813;DHT22;10066;48.108;11.448;2024-02-21T11:11:15;11.50;99.90
19813;DHT22;10066;48.108;11.448;2024-02-21T11:13:46;11.60;99.90
19813;DHT22;10066;48.108;11.448;2024-02-21T11:16:22;11.70;99.70
19813;DHT22;10066;48.108;11.448;2024-02-21T11:18:49;11.80;95.30
19813;DHT22;10066;48.108;11.448;2024-02-21T11:21:16;11.90;99.90
19813;DHT22;10066;48.108;11.448;2024-02-21T11:23:43;11.90;99.50
19813;DHT22;10066;48.108;11.448;2024-02-21T11:26:21;12.00;98.40
19813;DHT22;10066;48.108;11.448;2024-02-21T11:28:58;12.10;99.60
19813;DHT22;10066;48.108;11.448;2024-02-21T11:31:26;12.10;98.70
19813;DHT22;10066;48.108;11.448;2024-02-21T11:33:53;12.20;99.70
19813;DHT22;10066;48.108;11.448;2024-02-21T11:36:27;12.30;97.30
19813;DHT22;10066;48.108;11.448;2024-02-21T11:38:54;12.30;95.10
19813;DHT22;10066;48.108;11.448;2024-02-21T11:41:30;12.40;97.10
19813;DHT22;10066;48.108;11.448;2024-02-21T11:43:58;12.40;98.30
19813;DHT22;10066;48.108;11.448;2024-02-21T11:46:25;12.50;97.30
19813;DHT22;10066;48.108;11.448;2024-02-21T11:48:52;12.50;95.70
19813;DHT22;10066;48.108;11.448;2024-02-21T11:51:25;12.60;97.00
19813;DHT22;10066;48.108;11.448;2024-02-21T11:53:52;12.70;96.20
19813;DHT22;10066;48.108;11.448;2024-02-21T11:56:20;12.80;96.00
19813;DHT22;10066;48.108;11.448;2024-02-21T11:58:48;12.80;95.90
19813;DHT22;10066;48.108;11.448;2024-02-21T12:01:17;12.80;96.00
19813;DHT22;10066;48.108;11.448;2024-02-21T12:03:44;12.90;97.20
19813;DHT22;10066;48.108;11.448;2024-02-21T12:06:16;12.90;96.60
19813;DHT22;10066;48.108;11.448;2024-02-21T12:08:46;12.90;96.00
19813;DHT22;10066;48.108;11.448;2024-02-21T12:11:20;13.00;96.80
19813;DHT22;10066;48.108;11.448;2024-02-21T12:13:47;13.00;95.10
19813;DHT22;10066;48.108;11.448;2024-02-21T12:16:17;13.00;95.20
19813;DHT22;10066;48.108;11.448;2024-02-21T12:18:45;13.00;94.60
19813;DHT22;10066;48.108;11.448;2024-02-21T12:21:12;13.10;95.60
19813;DHT22;10066;48.108;11.448;2024-02-21T12:23:39;13.10;93.50
19813;DHT22;10066;48.108;11.448;2024-02-21T12:26:06;13.10;92.80
19813;DHT22;10066;48.108;11.448;2024-02-21T12:28:34;13.10;94.60
19813;DHT22;10066;48.108;11.448;2024-02-21T12:33:34;13.10;93.20
19813;DHT22;10066;48.108;11.448;2024-02-21T12:36:01;13.10;93.00
19813;DHT22;10066;48.108;11.448;2024-02-21T12:38:29;13.10;92.70
19813;DHT22;10066;48.108;11.448;2024-02-21T12:40:56;13.10;92.70
19813;DHT22;10066;48.108;11.448;2024-02-21T12:43:24;13.10;92.70
19813;DHT22;10066;48.108;11.448;2024-02-21T12:45:51;13.10;92.80
19813;DHT22;10066;48.108;11.448;2024-02-21T12:48:18;13.10;92.10
19813;DHT22;10066;48.108;11.448;2024-02-21T12:50:48;13.10;91.40
19813;DHT22;10066;48.108;11.448;2024-02-21T12:53:16;13.10;91.60
19813;DHT22;10066;48.108;11.448;2024-02-21T12:55:44;13.10;91.00
19813;DHT22;10066;48.108;11.448;2024-02-21T12:58:12;13.10;90.70
19813;DHT22;10066;48.108;11.448;2024-02-21T13:00:40;13.10;91.80
19813;DHT22;10066;48.108;11.448;2024-02-21T13:03:07;13.10;92.20
19813;DHT22;10066;48.108;11.448;2024-02-21T13:05:35;13.10;90.30
19813;DHT22;10066;48.108;11.448;2024-02-21T13:08:04;13.10;92.30
19813;DHT22;10066;48.108;11.448;2024-02-21T13:10:31;13.10;91.40
19813;DHT22;10066;48.108;11.448;2024-02-21T13:12:59;13.10;91.20
19813;DHT22;10066;48.108;11.448;2024-02-21T13:15:27;13.20;90.80
19813;DHT22;10066;48.108;11.448;2024-02-21T13:17:55;13.20;91.30
19813;DHT22;10066;48.108;11.448;2024-02-21T13:20:22;13.20;91.10
19813;DHT22;10066;48.108;11.448;2024-02-21T13:22:49;13.10;91.00
19813;DHT22;10066;48.108;11.448;2024-02-21T13:25:18;13.10;89.20
19813;DHT22;10066;48.108;11.448;2024-02-21T13:27:46;13.20;90.90
19813;DHT22;10066;48.108;11.448;2024-02-21T13:30:14;13.20;89.60
19813;DHT22;10066;48.108;11.448;2024-02-21T13:32:44;13.20;89.70
19813;DHT22;10066;48.108;11.448;2024-02-21T13:35:13;13.20;90.80
19813;DHT22;10066;48.108;11.448;2024-02-21T13:37:40;13.20;90.30
19813;DHT22;10066;48.108;11.448;2024-02-21T13:40:08;13.20;90.40
19813;DHT22;10066;48.108;11.448;2024-02-21T13:42:37;13.20;89.20
19813;DHT22;10066;48.108;11.448;2024-02-21T13:45:05;13.20;90.10
19813;DHT22;10066;48.108;11.448;2024-02-21T13:47:35;13.20;88.90
19813;DHT22;10066;48.108;11.448;2024-02-21T13:50:05;13.20;90.20
19813;DHT22;10066;48.108;11.448;2024-02-21T13:52:34;13.20;90.60
19813;DHT22;10066;48.108;11.448;2024-02-21T13:55:01;13.20;90.30
19813;DHT22;10066;48.108;11.448;2024-02-21T13:57:29;13.20;90.00
19813;DHT22;10066;48.108;11.448;2024-02-21T13:59:57;13.20;89.80
19813;DHT22;10066;48.108;11.448;2024-02-21T14:02:25;13.20;87.90
19813;DHT22;10066;48.108;11.448;2024-02-21T14:04:52;13.30;87.80
19813;DHT22;10066;48.108;11.448;2024-02-21T14:07:19;13.30;85.70
19813;DHT22;10066;48.108;11.448;2024-02-21T14:09:46;13.30;86.20
19813;DHT22;10066;48.108;11.448;2024-02-21T14:12:13;13.30;84.80
19813;DHT22;10066;48.108;11.448;2024-02-21T14:14:43;13.30;85.80
19813;DHT22;10066;48.108;11.448;2024-02-21T14:17:12;13.30;82.10
19813;DHT22;10066;48.108;11.448;2024-02-21T14:19:39;13.40;82.40
19813;DHT22;10066;48.108;11.448;2024-02-21T14:22:07;13.40;83.80
19813;DHT22;10066;48.108;11.448;2024-02-21T14:24:34;13.40;83.50
19813;DHT22;10066;48.108;11.448;2024-02-21T14:27:01;13.40;81.30
19813;DHT22;10066;48.108;11.448;2024-02-21T14:29:29;13.30;81.20
19813;DHT22;10066;48.108;11.448;2024-02-21T14:31:56;13.30;85.40
19813;DHT22;10066;48.108;11.448;2024-02-21T14:34:24;13.30;83.00
19813;DHT22;10066;48.108;11.448;2024-02-21T14:36:52;13.30;82.20
19813;DHT22;10066;48.108;11.448;2024-02-21T14:39:19;13.30;83.40
19813;DHT22;10066;48.108;11.448;2024-02-21T14:41:48;13.30;82.70
19813;DHT22;10066;48.108;11.448;2024-02-21T14:44:15;13.30;81.20
19813;DHT22;10066;48.108;11.448;2024-02-21T14:46:42;13.20;82.10
19813;DHT22;10066;48.108;11.448;2024-02-21T14:49:10;13.20;81.10
19813;DHT22;10066;48.108;11.448;2024-02-21T14:51:40;13.20;82.20
19813;DHT22;10066;48.108;11.448;2024-02-21T14:54:07;13.20;82.70
19813;DHT22;10066;48.108;11.448;2024-02-21T14:56:34;13.10;82.40
19813;DHT22;10066;48.108;11.448;2024-02-21T14:59:04;13.10;83.80
19813;DHT22;10066;48.108;11.448;2024-02-21T15:01:36;13.00;83.50
19813;DHT22;10066;48.108;11.448;2024-02-21T15:04:04;13.00;81.70
19813;DHT22;10066;48.108;11.448;2024-02-21T15:06:32;13.00;83.20
19813;DHT22;10066;48.108;11.448;2024-02-21T15:09:03;12.90;82.80
19813;DHT22;10066;48.108;11.448;2024-02-21T15:11:31;12.90;83.60
19813;DHT22;10066;48.108;11.448;2024-02-21T15:13:58;12.90;83.80
19813;DHT22;10066;48.108;11.448;2024-02-21T15:16:25;12.90;85.10
19813;DHT22;10066;48.108;11.448;2024-02-21T15:18:53;12.80;83.70
19813;DHT22;10066;48.108;11.448;2024-02-21T15:21:20;12.80;84.00
19813;DHT22;10066;48.108;11.448;2024-02-21T15:23:47;12.80;83.80
19813;DHT22;10066;48.108;11.448;2024-02-21T15:26:16;12.70;84.30
19813;DHT22;10066;48.108;11.448;2024-02-21T15:28:43;12.70;84.70
19813;DHT22;10066;48.108;11.448;2024-02-21T15:31:19;12.70;84.30
19813;DHT22;10066;48.108;11.448;2024-02-21T15:33:51;12.60;84.70
19813;DHT22;10066;48.108;11.448;2024-02-21T15:36:18;12.60;85.80